sensor_id;sensor_type;location;lat;lon;timestamp;pressure;altitude;pressure_sealevel;temperature;humidity
34205;BME280;20471;49.680;20.074;2023-02-23T00:02:06;97230.65;;;-0.70;71.74
34205;BME280;20471;49.680;20.074;2023-02-23T00:04:35;97230.09;;;-0.73;71.61
34205;BME280;20471;49.680;20.074;2023-02-23T00:07:04;97232.73;;;-0.75;71.57
34205;BME280;20471;49.680;20.074;2023-02-23T00:09:33;97230.86;;;-0.78;71.58
34205;BME280;20471;49.680;20.074;2023-02-23T00:12:04;97227.54;;;-0.82;71.54
34205;BME280;20471;49.680;20.074;2023-02-23T00:14:35;97228.21;;;-0.85;71.53
34205;BME280;20471;49.680;20.074;2023-02-23T00:17:06;97222.98;;;-0.88;71.65
34205;BME280;20471;49.680;20.074;2023-02-23T00:19:39;97223.81;;;-0.89;71.69
34205;BME280;20471;49.680;20.074;2023-02-23T00:22:09;97223.23;;;-0.90;71.57
34205;BME280;20471;49.680;20.074;2023-02-23T00:24:38;97224.69;;;-0.91;71.72
34205;BME280;20471;49.680;20.074;2023-02-23T00:27:07;97224.08;;;-0.92;71.87
34205;BME280;20471;49.680;20.074;2023-02-23T00:29:36;97223.58;;;-0.94;71.94
34205;BME280;20471;49.680;20.074;2023-02-23T00:32:06;97225.33;;;-0.96;71.92
34205;BME280;20471;49.680;20.074;2023-02-23T00:34:35;97224.33;;;-0.98;72.01
34205;BME280;20471;49.680;20.074;2023-02-23T00:37:04;97225.75;;;-0.98;72.02
34205;BME280;20471;49.680;20.074;2023-02-23T00:39:34;97226.58;;;-0.97;72.00
34205;BME280;20471;49.680;20.074;2023-02-23T00:42:02;97231.29;;;-0.97;72.04
34205;BME280;20471;49.680;20.074;2023-02-23T00:44:32;97228.64;;;-0.99;72.17
34205;BME280;20471;49.680;20.074;2023-02-23T00:47:01;97226.67;;;-1.02;72.16
34205;BME280;20471;49.680;20.074;2023-02-23T00:49:29;97220.73;;;-1.05;72.28
34205;BME280;20471;49.680;20.074;2023-02-23T00:51:57;97219.51;;;-1.07;72.27
34205;BME280;20471;49.680;20.074;2023-02-23T00:54:25;97224.64;;;-1.07;72.13
34205;BME280;20471;49.680;20.074;2023-02-23T00:56:53;97227.16;;;-1.08;72.05
34205;BME280;20471;49.680;20.074;2023-02-23T00:59:22;97227.56;;;-1.09;72.09
34205;BME280;20471;49.680;20.074;2023-02-23T01:01:50;97227.73;;;-1.08;72.12
34205;BME280;20471;49.680;20.074;2023-02-23T01:04:18;97228.20;;;-1.10;72.27
34205;BME280;20471;49.680;20.074;2023-02-23T01:06:46;97228.65;;;-1.13;72.28
34205;BME280;20471;49.680;20.074;2023-02-23T01:09:15;97230.11;;;-1.17;72.37
34205;BME280;20471;49.680;20.074;2023-02-23T01:11:54;97231.50;;;-1.18;72.29
34205;BME280;20471;49.680;20.074;2023-02-23T01:14:23;97233.12;;;-1.21;72.26
34205;BME280;20471;49.680;20.074;2023-02-23T01:16:52;97231.92;;;-1.21;72.34
34205;BME280;20471;49.680;20.074;2023-02-23T01:19:20;97227.23;;;-1.20;72.62
34205;BME280;20471;49.680;20.074;2023-02-23T01:21:49;97225.50;;;-1.21;72.52
34205;BME280;20471;49.680;20.074;2023-02-23T01:24:17;97221.65;;;-1.23;72.48
34205;BME280;20471;49.680;20.074;2023-02-23T01:26:45;97217.95;;;-1.24;72.45
34205;BME280;20471;49.680;20.074;2023-02-23T01:29:16;97214.55;;;-1.28;72.38
34205;BME280;20471;49.680;20.074;2023-02-23T01:31:46;97216.74;;;-1.30;72.51
34205;BME280;20471;49.680;20.074;2023-02-23T01:34:17;97213.50;;;-1.33;72.35
34205;BME280;20471;49.680;20.074;2023-02-23T01:36:47;97212.15;;;-1.36;72.39
34205;BME280;20471;49.680;20.074;2023-02-23T01:39:17;97215.05;;;-1.36;72.49
34205;BME280;20471;49.680;20.074;2023-02-23T01:41:46;97207.48;;;-1.37;72.55
34205;BME280;20471;49.680;20.074;2023-02-23T01:46:45;97208.30;;;-1.42;72.59
34205;BME280;20471;49.680;20.074;2023-02-23T01:49:17;97207.89;;;-1.45;72.65
34205;BME280;20471;49.680;20.074;2023-02-23T01:54:42;97204.08;;;-1.52;72.87
34205;BME280;20471;49.680;20.074;2023-02-23T01:57:16;97203.15;;;-1.55;72.92
34205;BME280;20471;49.680;20.074;2023-02-23T01:59:45;97198.30;;;-1.58;72.96
34205;BME280;20471;49.680;20.074;2023-02-23T02:02:17;97200.59;;;-1.60;73.00
34205;BME280;20471;49.680;20.074;2023-02-23T02:04:47;97200.33;;;-1.62;73.05
34205;BME280;20471;49.680;20.074;2023-02-23T02:07:21;97198.15;;;-1.64;73.08
34205;BME280;20471;49.680;20.074;2023-02-23T02:09:51;97195.70;;;-1.62;73.13
34205;BME280;20471;49.680;20.074;2023-02-23T02:12:53;97193.45;;;-1.62;73.18
34205;BME280;20471;49.680;20.074;2023-02-23T02:15:22;97193.23;;;-1.64;73.18
34205;BME280;20471;49.680;20.074;2023-02-23T02:25:39;97190.06;;;-1.70;73.27
34205;BME280;20471;49.680;20.074;2023-02-23T02:41:23;97184.10;;;-1.74;73.50
34205;BME280;20471;49.680;20.074;2023-02-23T02:43:57;97186.19;;;-1.73;73.52
34205;BME280;20471;49.680;20.074;2023-02-23T02:46:35;97182.68;;;-1.72;73.64
34205;BME280;20471;49.680;20.074;2023-02-23T02:49:18;97183.85;;;-1.71;73.56
34205;BME280;20471;49.680;20.074;2023-02-23T02:51:54;97185.46;;;-1.73;73.37
34205;BME280;20471;49.680;20.074;2023-02-23T02:54:28;97182.48;;;-1.75;73.29
34205;BME280;20471;49.680;20.074;2023-02-23T02:56:59;97182.05;;;-1.77;73.44
34205;BME280;20471;49.680;20.074;2023-02-23T02:59:30;97178.66;;;-1.78;73.40
34205;BME280;20471;49.680;20.074;2023-02-23T03:02:16;97177.14;;;-1.81;73.27
34205;BME280;20471;49.680;20.074;2023-02-23T03:05:12;97177.60;;;-1.84;73.34
34205;BME280;20471;49.680;20.074;2023-02-23T03:10:47;97174.94;;;-1.88;73.36
34205;BME280;20471;49.680;20.074;2023-02-23T03:13:42;97178.73;;;-1.92;73.32
34205;BME280;20471;49.680;20.074;2023-02-23T03:16:36;97180.08;;;-1.96;73.55
34205;BME280;20471;49.680;20.074;2023-02-23T03:19:30;97179.45;;;-1.97;73.49
34205;BME280;20471;49.680;20.074;2023-02-23T03:22:23;97181.52;;;-1.98;73.59
34205;BME280;20471;49.680;20.074;2023-02-23T03:25:11;97176.17;;;-2.01;73.57
34205;BME280;20471;49.680;20.074;2023-02-23T03:28:12;97178.10;;;-2.03;73.51
34205;BME280;20471;49.680;20.074;2023-02-23T03:31:19;97180.00;;;-2.04;73.61
34205;BME280;20471;49.680;20.074;2023-02-23T03:34:14;97179.44;;;-2.06;73.59
34205;BME280;20471;49.680;20.074;2023-02-23T03:39:55;97179.18;;;-2.09;73.75
34205;BME280;20471;49.680;20.074;2023-02-23T03:42:42;97178.55;;;-2.10;73.60
34205;BME280;20471;49.680;20.074;2023-02-23T03:45:28;97175.13;;;-2.11;73.57
34205;BME280;20471;49.680;20.074;2023-02-23T03:48:14;97178.50;;;-2.13;73.59
34205;BME280;20471;49.680;20.074;2023-02-23T03:51:03;97177.82;;;-2.15;73.78
34205;BME280;20471;49.680;20.074;2023-02-23T03:53:52;97175.05;;;-2.18;73.72
34205;BME280;20471;49.680;20.074;2023-02-23T03:56:40;97175.66;;;-2.19;73.61
34205;BME280;20471;49.680;20.074;2023-02-23T03:59:28;97177.65;;;-2.19;73.64
34205;BME280;20471;49.680;20.074;2023-02-23T04:02:15;97175.46;;;-2.20;73.74
34205;BME280;20471;49.680;20.074;2023-02-23T04:05:04;97175.40;;;-2.22;73.71
34205;BME280;20471;49.680;20.074;2023-02-23T04:07:51;97178.35;;;-2.25;73.68
34205;BME280;20471;49.680;20.074;2023-02-23T04:10:40;97178.83;;;-2.26;73.85
34205;BME280;20471;49.680;20.074;2023-02-23T04:13:28;97177.02;;;-2.28;73.87
34205;BME280;20471;49.680;20.074;2023-02-23T04:15:58;97179.00;;;-2.28;74.03
34205;BME280;20471;49.680;20.074;2023-02-23T04:18:27;97180.19;;;-2.30;73.89
34205;BME280;20471;49.680;20.074;2023-02-23T04:20:56;97177.96;;;-2.32;73.85
34205;BME280;20471;49.680;20.074;2023-02-23T04:23:25;97180.32;;;-2.33;73.83
34205;BME280;20471;49.680;20.074;2023-02-23T04:25:53;97180.54;;;-2.35;73.76
34205;BME280;20471;49.680;20.074;2023-02-23T04:28:22;97178.52;;;-2.37;73.86
34205;BME280;20471;49.680;20.074;2023-02-23T04:30:51;97178.88;;;-2.39;73.86
34205;BME280;20471;49.680;20.074;2023-02-23T04:33:19;97178.18;;;-2.41;73.89
34205;BME280;20471;49.680;20.074;2023-02-23T04:35:47;97176.65;;;-2.41;73.89
34205;BME280;20471;49.680;20.074;2023-02-23T04:38:15;97176.58;;;-2.42;74.01
34205;BME280;20471;49.680;20.074;2023-02-23T04:40:43;97174.29;;;-2.44;73.92
34205;BME280;20471;49.680;20.074;2023-02-23T04:43:11;97175.56;;;-2.47;73.91
34205;BME280;20471;49.680;20.074;2023-02-23T04:45:39;97176.23;;;-2.48;74.04
34205;BME280;20471;49.680;20.074;2023-02-23T04:48:07;97176.16;;;-2.49;73.92
34205;BME280;20471;49.680;20.074;2023-02-23T04:50:35;97178.16;;;-2.50;73.92
34205;BME280;20471;49.680;20.074;2023-02-23T04:53:04;97175.44;;;-2.49;73.91
34205;BME280;20471;49.680;20.074;2023-02-23T04:55:32;97176.27;;;-2.51;73.87
34205;BME280;20471;49.680;20.074;2023-02-23T04:58:00;97175.29;;;-2.51;74.05
34205;BME280;20471;49.680;20.074;2023-02-23T05:00:28;97175.77;;;-2.51;74.10
34205;BME280;20471;49.680;20.074;2023-02-23T05:02:57;97173.27;;;-2.51;74.20
34205;BME280;20471;49.680;20.074;2023-02-23T05:05:25;97173.16;;;-2.49;74.21
34205;BME280;20471;49.680;20.074;2023-02-23T05:07:53;97173.23;;;-2.50;74.31
34205;BME280;20471;49.680;20.074;2023-02-23T05:10:21;97173.15;;;-2.51;74.25
34205;BME280;20471;49.680;20.074;2023-02-23T05:12:49;97173.05;;;-2.50;74.30
34205;BME280;20471;49.680;20.074;2023-02-23T05:15:17;97171.86;;;-2.48;74.33
34205;BME280;20471;49.680;20.074;2023-02-23T05:17:45;97175.41;;;-2.49;74.25
34205;BME280;20471;49.680;20.074;2023-02-23T05:20:13;97174.80;;;-2.50;74.34
34205;BME280;20471;49.680;20.074;2023-02-23T05:22:42;97174.94;;;-2.50;74.36
34205;BME280;20471;49.680;20.074;2023-02-23T05:25:10;97178.35;;;-2.50;74.36
34205;BME280;20471;49.680;20.074;2023-02-23T05:27:38;97179.89;;;-2.50;74.35
34205;BME280;20471;49.680;20.074;2023-02-23T05:30:06;97176.20;;;-2.50;74.46
34205;BME280;20471;49.680;20.074;2023-02-23T05:32:35;97178.96;;;-2.49;74.54
34205;BME280;20471;49.680;20.074;2023-02-23T05:35:03;97179.73;;;-2.50;74.60
34205;BME280;20471;49.680;20.074;2023-02-23T05:37:31;97178.59;;;-2.49;74.61
34205;BME280;20471;49.680;20.074;2023-02-23T05:40:00;97178.80;;;-2.49;74.74
34205;BME280;20471;49.680;20.074;2023-02-23T05:42:28;97183.30;;;-2.51;74.86
34205;BME280;20471;49.680;20.074;2023-02-23T05:44:56;97181.95;;;-2.51;74.86
34205;BME280;20471;49.680;20.074;2023-02-23T05:47:24;97180.66;;;-2.51;74.82
34205;BME280;20471;49.680;20.074;2023-02-23T05:49:51;97179.86;;;-2.50;74.93
34205;BME280;20471;49.680;20.074;2023-02-23T05:52:20;97179.94;;;-2.50;74.88
34205;BME280;20471;49.680;20.074;2023-02-23T05:54:48;97178.52;;;-2.50;75.07
34205;BME280;20471;49.680;20.074;2023-02-23T05:57:16;97180.16;;;-2.47;75.17
34205;BME280;20471;49.680;20.074;2023-02-23T05:59:44;97182.92;;;-2.44;75.26
34205;BME280;20471;49.680;20.074;2023-02-23T06:02:12;97188.57;;;-2.42;75.06
34205;BME280;20471;49.680;20.074;2023-02-23T06:04:40;97190.72;;;-2.41;75.08
34205;BME280;20471;49.680;20.074;2023-02-23T06:07:08;97185.17;;;-2.42;75.22
34205;BME280;20471;49.680;20.074;2023-02-23T06:09:36;97188.51;;;-2.40;75.33
34205;BME280;20471;49.680;20.074;2023-02-23T06:12:04;97190.46;;;-2.36;75.29
34205;BME280;20471;49.680;20.074;2023-02-23T06:14:32;97188.73;;;-2.32;75.34
34205;BME280;20471;49.680;20.074;2023-02-23T06:17:00;97191.47;;;-2.30;75.28
34205;BME280;20471;49.680;20.074;2023-02-23T06:19:28;97193.84;;;-2.27;75.32
34205;BME280;20471;49.680;20.074;2023-02-23T06:21:57;97195.43;;;-2.25;75.30
34205;BME280;20471;49.680;20.074;2023-02-23T06:24:25;97193.13;;;-2.23;75.31
34205;BME280;20471;49.680;20.074;2023-02-23T06:26:53;97195.26;;;-2.19;75.32
34205;BME280;20471;49.680;20.074;2023-02-23T06:29:21;97199.15;;;-2.15;75.27
34205;BME280;20471;49.680;20.074;2023-02-23T06:31:49;97201.64;;;-2.11;75.41
34205;BME280;20471;49.680;20.074;2023-02-23T06:34:17;97202.31;;;-2.07;75.48
34205;BME280;20471;49.680;20.074;2023-02-23T06:36:45;97203.20;;;-2.04;75.54
34205;BME280;20471;49.680;20.074;2023-02-23T06:39:16;97204.20;;;-1.99;75.53
34205;BME280;20471;49.680;20.074;2023-02-23T06:41:44;97206.33;;;-1.94;75.71
34205;BME280;20471;49.680;20.074;2023-02-23T06:44:12;97207.16;;;-1.87;75.73
34205;BME280;20471;49.680;20.074;2023-02-23T06:46:40;97205.06;;;-1.82;75.91
34205;BME280;20471;49.680;20.074;2023-02-23T06:49:09;97208.28;;;-1.74;75.84
34205;BME280;20471;49.680;20.074;2023-02-23T06:51:38;97206.59;;;-1.67;75.92
34205;BME280;20471;49.680;20.074;2023-02-23T06:54:06;97207.55;;;-1.60;75.92
34205;BME280;20471;49.680;20.074;2023-02-23T06:56:34;97200.84;;;-1.55;76.05
34205;BME280;20471;49.680;20.074;2023-02-23T06:59:02;97198.02;;;-1.49;75.99
34205;BME280;20471;49.680;20.074;2023-02-23T07:01:30;97198.42;;;-1.44;76.12
34205;BME280;20471;49.680;20.074;2023-02-23T07:03:58;97199.31;;;-1.38;76.21
34205;BME280;20471;49.680;20.074;2023-02-23T07:06:26;97201.59;;;-1.33;76.24
34205;BME280;20471;49.680;20.074;2023-02-23T07:08:56;97198.93;;;-1.27;76.35
34205;BME280;20471;49.680;20.074;2023-02-23T07:11:24;97191.75;;;-1.20;76.33
34205;BME280;20471;49.680;20.074;2023-02-23T07:13:52;97192.36;;;-1.13;76.45
34205;BME280;20471;49.680;20.074;2023-02-23T07:16:21;97192.23;;;-1.06;76.48
34205;BME280;20471;49.680;20.074;2023-02-23T07:18:49;97191.09;;;-0.99;76.47
34205;BME280;20471;49.680;20.074;2023-02-23T07:21:17;97194.04;;;-0.94;76.50
34205;BME280;20471;49.680;20.074;2023-02-23T07:23:48;97194.63;;;-0.87;76.41
34205;BME280;20471;49.680;20.074;2023-02-23T07:26:16;97196.46;;;-0.80;76.53
34205;BME280;20471;49.680;20.074;2023-02-23T07:28:44;97198.55;;;-0.73;76.54
34205;BME280;20471;49.680;20.074;2023-02-23T07:31:12;97198.63;;;-0.64;76.59
34205;BME280;20471;49.680;20.074;2023-02-23T07:33:40;97196.61;;;-0.56;76.57
34205;BME280;20471;49.680;20.074;2023-02-23T07:36:08;97193.50;;;-0.48;76.68
34205;BME280;20471;49.680;20.074;2023-02-23T07:38:36;97193.16;;;-0.39;76.71
34205;BME280;20471;49.680;20.074;2023-02-23T07:41:04;97193.77;;;-0.29;76.58
34205;BME280;20471;49.680;20.074;2023-02-23T07:43:32;97193.47;;;-0.20;76.58
34205;BME280;20471;49.680;20.074;2023-02-23T07:46:00;97193.40;;;-0.11;76.49
34205;BME280;20471;49.680;20.074;2023-02-23T07:48:28;97192.17;;;-0.00;76.63
34205;BME280;20471;49.680;20.074;2023-02-23T07:50:56;97189.91;;;0.08;76.66
34205;BME280;20471;49.680;20.074;2023-02-23T07:53:24;97187.19;;;0.18;76.60
34205;BME280;20471;49.680;20.074;2023-02-23T07:55:56;97185.59;;;0.29;76.64
34205;BME280;20471;49.680;20.074;2023-02-23T07:58:25;97186.30;;;0.41;76.66
34205;BME280;20471;49.680;20.074;2023-02-23T08:00:53;97183.16;;;0.53;76.61
34205;BME280;20471;49.680;20.074;2023-02-23T08:03:21;97181.67;;;0.66;76.54
34205;BME280;20471;49.680;20.074;2023-02-23T08:05:49;97182.23;;;0.79;76.52
34205;BME280;20471;49.680;20.074;2023-02-23T08:08:17;97178.49;;;0.91;76.44
34205;BME280;20471;49.680;20.074;2023-02-23T08:10:45;97180.59;;;1.04;76.34
34205;BME280;20471;49.680;20.074;2023-02-23T08:13:14;97183.58;;;1.16;76.30
34205;BME280;20471;49.680;20.074;2023-02-23T08:15:42;97185.26;;;1.31;76.35
34205;BME280;20471;49.680;20.074;2023-02-23T08:18:10;97184.09;;;1.47;76.41
34205;BME280;20471;49.680;20.074;2023-02-23T08:20:38;97183.45;;;1.64;76.26
34205;BME280;20471;49.680;20.074;2023-02-23T08:23:06;97179.59;;;1.82;76.19
34205;BME280;20471;49.680;20.074;2023-02-23T08:25:34;97179.57;;;2.01;75.92
34205;BME280;20471;49.680;20.074;2023-02-23T08:28:02;97183.36;;;2.22;75.78
34205;BME280;20471;49.680;20.074;2023-02-23T08:30:32;97179.67;;;2.41;75.61
34205;BME280;20471;49.680;20.074;2023-02-23T08:33:00;97176.92;;;2.60;75.46
34205;BME280;20471;49.680;20.074;2023-02-23T08:35:28;97172.81;;;2.79;75.38
34205;BME280;20471;49.680;20.074;2023-02-23T08:37:56;97167.88;;;3.00;75.38
34205;BME280;20471;49.680;20.074;2023-02-23T08:40:25;97171.36;;;3.17;75.14
34205;BME280;20471;49.680;20.074;2023-02-23T08:42:52;97171.85;;;3.34;74.83
34205;BME280;20471;49.680;20.074;2023-02-23T08:45:21;97171.39;;;3.51;74.67
34205;BME280;20471;49.680;20.074;2023-02-23T08:47:49;97169.57;;;3.70;74.57
34205;BME280;20471;49.680;20.074;2023-02-23T08:50:17;97167.38;;;3.89;74.11
34205;BME280;20471;49.680;20.074;2023-02-23T08:52:45;97168.65;;;4.06;73.90
34205;BME280;20471;49.680;20.074;2023-02-23T08:55:13;97167.31;;;4.20;73.65
34205;BME280;20471;49.680;20.074;2023-02-23T08:57:43;97163.77;;;4.35;73.46
34205;BME280;20471;49.680;20.074;2023-02-23T09:00:11;97165.29;;;4.51;73.13
34205;BME280;20471;49.680;20.074;2023-02-23T09:02:43;97165.85;;;4.64;72.86
34205;BME280;20471;49.680;20.074;2023-02-23T09:05:13;97165.29;;;4.75;72.48
34205;BME280;20471;49.680;20.074;2023-02-23T09:07:41;97159.80;;;4.83;72.32
34205;BME280;20471;49.680;20.074;2023-02-23T09:10:11;97158.52;;;4.93;72.47
34205;BME280;20471;49.680;20.074;2023-02-23T09:12:39;97158.90;;;5.03;72.03
34205;BME280;20471;49.680;20.074;2023-02-23T09:15:07;97160.26;;;5.08;71.57
34205;BME280;20471;49.680;20.074;2023-02-23T09:17:36;97160.66;;;5.14;71.78
34205;BME280;20471;49.680;20.074;2023-02-23T09:20:04;97161.54;;;5.23;71.57
34205;BME280;20471;49.680;20.074;2023-02-23T09:22:32;97159.48;;;5.32;71.61
34205;BME280;20471;49.680;20.074;2023-02-23T09:25:01;97157.23;;;5.44;71.57
34205;BME280;20471;49.680;20.074;2023-02-23T09:27:29;97153.59;;;5.53;71.40
34205;BME280;20471;49.680;20.074;2023-02-23T09:29:57;97155.52;;;5.61;71.14
34205;BME280;20471;49.680;20.074;2023-02-23T09:32:25;97152.75;;;5.70;71.02
34205;BME280;20471;49.680;20.074;2023-02-23T09:34:53;97150.73;;;5.84;70.95
34205;BME280;20471;49.680;20.074;2023-02-23T09:37:21;97150.63;;;5.96;70.69
34205;BME280;20471;49.680;20.074;2023-02-23T09:39:50;97148.33;;;6.08;70.58
34205;BME280;20471;49.680;20.074;2023-02-23T09:47:36;97142.90;;;6.55;70.59
34205;BME280;20471;49.680;20.074;2023-02-23T09:50:12;97140.16;;;6.71;70.20
34205;BME280;20471;49.680;20.074;2023-02-23T09:52:43;97139.65;;;6.85;69.69
34205;BME280;20471;49.680;20.074;2023-02-23T09:55:12;97135.09;;;6.98;69.55
34205;BME280;20471;49.680;20.074;2023-02-23T09:57:44;97133.39;;;7.14;69.54
34205;BME280;20471;49.680;20.074;2023-02-23T10:00:25;97134.16;;;7.32;69.70
34205;BME280;20471;49.680;20.074;2023-02-23T10:05:31;97133.33;;;7.60;68.73
34205;BME280;20471;49.680;20.074;2023-02-23T10:08:05;97136.23;;;7.74;68.30
34205;BME280;20471;49.680;20.074;2023-02-23T10:15:51;97128.30;;;8.31;67.14
34205;BME280;20471;49.680;20.074;2023-02-23T10:21:06;97122.98;;;8.73;66.78
34205;BME280;20471;49.680;20.074;2023-02-23T10:23:40;97120.88;;;8.92;66.27
34205;BME280;20471;49.680;20.074;2023-02-23T10:26:14;97119.25;;;9.03;65.82
34205;BME280;20471;49.680;20.074;2023-02-23T10:28:43;97117.91;;;9.18;65.96
34205;BME280;20471;49.680;20.074;2023-02-23T10:33:46;97118.31;;;9.62;65.30
34205;BME280;20471;49.680;20.074;2023-02-23T10:36:16;97117.21;;;9.85;64.98
34205;BME280;20471;49.680;20.074;2023-02-23T10:38:45;97114.23;;;9.97;64.33
34205;BME280;20471;49.680;20.074;2023-02-23T10:41:14;97109.39;;;10.14;64.22
34205;BME280;20471;49.680;20.074;2023-02-23T10:43:43;97106.32;;;10.25;63.86
34205;BME280;20471;49.680;20.074;2023-02-23T10:46:16;97102.00;;;10.33;63.50
34205;BME280;20471;49.680;20.074;2023-02-23T10:48:46;97100.64;;;10.44;63.04
34205;BME280;20471;49.680;20.074;2023-02-23T10:51:17;97096.80;;;10.60;63.31
34205;BME280;20471;49.680;20.074;2023-02-23T10:53:47;97093.23;;;10.80;63.34
34205;BME280;20471;49.680;20.074;2023-02-23T10:56:16;97087.95;;;11.00;62.74
34205;BME280;20471;49.680;20.074;2023-02-23T10:58:46;97090.10;;;11.13;61.95
34205;BME280;20471;49.680;20.074;2023-02-23T11:06:48;97080.69;;;11.66;61.07
34205;BME280;20471;49.680;20.074;2023-02-23T11:12:01;97075.02;;;11.99;60.45
34205;BME280;20471;49.680;20.074;2023-02-23T11:14:30;97067.83;;;12.17;60.01
34205;BME280;20471;49.680;20.074;2023-02-23T11:16:58;97065.98;;;12.33;59.61
34205;BME280;20471;49.680;20.074;2023-02-23T11:21:59;97063.92;;;12.58;58.92
34205;BME280;20471;49.680;20.074;2023-02-23T11:24:31;97054.82;;;12.73;58.57
34205;BME280;20471;49.680;20.074;2023-02-23T11:27:02;97050.50;;;12.85;58.07
34205;BME280;20471;49.680;20.074;2023-02-23T11:29:36;97047.70;;;12.90;57.74
34205;BME280;20471;49.680;20.074;2023-02-23T11:32:12;97049.83;;;13.04;57.88
34205;BME280;20471;49.680;20.074;2023-02-23T11:34:42;97046.57;;;13.15;57.96
34205;BME280;20471;49.680;20.074;2023-02-23T11:42:38;97036.13;;;13.60;56.76
34205;BME280;20471;49.680;20.074;2023-02-23T11:45:19;97037.15;;;13.77;56.38
34205;BME280;20471;49.680;20.074;2023-02-23T11:47:49;97034.34;;;13.84;55.85
34205;BME280;20471;49.680;20.074;2023-02-23T11:50:23;97030.45;;;13.87;55.68
34205;BME280;20471;49.680;20.074;2023-02-23T11:53:06;97029.23;;;13.92;54.83
34205;BME280;20471;49.680;20.074;2023-02-23T11:55:39;97025.73;;;13.92;54.80
34205;BME280;20471;49.680;20.074;2023-02-23T11:58:24;97023.26;;;13.96;54.71
34205;BME280;20471;49.680;20.074;2023-02-23T12:00:55;97020.66;;;13.99;54.66
34205;BME280;20471;49.680;20.074;2023-02-23T12:03:25;97015.52;;;14.06;54.31
34205;BME280;20471;49.680;20.074;2023-02-23T12:05:54;97008.75;;;14.13;54.47
34205;BME280;20471;49.680;20.074;2023-02-23T12:08:38;97007.27;;;14.19;54.25
34205;BME280;20471;49.680;20.074;2023-02-23T12:11:09;97003.77;;;14.19;54.00
34205;BME280;20471;49.680;20.074;2023-02-23T12:13:40;97003.59;;;14.19;54.06
34205;BME280;20471;49.680;20.074;2023-02-23T12:16:17;97005.41;;;14.24;54.17
34205;BME280;20471;49.680;20.074;2023-02-23T12:18:50;97003.67;;;14.38;53.83
34205;BME280;20471;49.680;20.074;2023-02-23T12:23:54;96998.39;;;14.48;53.14
34205;BME280;20471;49.680;20.074;2023-02-23T12:26:25;96995.78;;;14.48;53.32
34205;BME280;20471;49.680;20.074;2023-02-23T12:31:26;96988.63;;;14.49;52.96
34205;BME280;20471;49.680;20.074;2023-02-23T12:33:59;96983.41;;;14.56;52.94
34205;BME280;20471;49.680;20.074;2023-02-23T12:36:36;96988.21;;;14.64;52.94
34205;BME280;20471;49.680;20.074;2023-02-23T12:39:20;96987.02;;;14.71;53.06
34205;BME280;20471;49.680;20.074;2023-02-23T12:42:11;96986.30;;;14.78;52.62
34205;BME280;20471;49.680;20.074;2023-02-23T12:45:00;96983.61;;;14.81;52.74
34205;BME280;20471;49.680;20.074;2023-02-23T12:52:48;96977.46;;;14.87;52.41
34205;BME280;20471;49.680;20.074;2023-02-23T13:00:45;96966.92;;;14.74;52.22
34205;BME280;20471;49.680;20.074;2023-02-23T13:09:02;96958.61;;;14.47;51.66
34205;BME280;20471;49.680;20.074;2023-02-23T13:14:19;96956.22;;;14.07;51.88
34205;BME280;20471;49.680;20.074;2023-02-23T13:17:07;96951.33;;;14.01;51.90
34205;BME280;20471;49.680;20.074;2023-02-23T13:19:45;96948.93;;;13.97;52.25
34205;BME280;20471;49.680;20.074;2023-02-23T13:24:53;96948.20;;;13.98;52.25
34205;BME280;20471;49.680;20.074;2023-02-23T13:27:25;96946.86;;;13.99;52.00
34205;BME280;20471;49.680;20.074;2023-02-23T13:29:54;96945.52;;;14.01;52.32
34205;BME280;20471;49.680;20.074;2023-02-23T13:32:26;96943.48;;;14.00;52.07
34205;BME280;20471;49.680;20.074;2023-02-23T13:34:59;96938.66;;;13.94;51.29
34205;BME280;20471;49.680;20.074;2023-02-23T13:37:30;96937.13;;;13.82;51.74
34205;BME280;20471;49.680;20.074;2023-02-23T13:40:01;96938.01;;;13.85;52.28
34205;BME280;20471;49.680;20.074;2023-02-23T13:48:15;96927.35;;;14.08;51.89
34205;BME280;20471;49.680;20.074;2023-02-23T13:50:49;96923.48;;;14.16;51.72
34205;BME280;20471;49.680;20.074;2023-02-23T13:56:16;96919.84;;;14.41;51.81
34205;BME280;20471;49.680;20.074;2023-02-23T13:58:46;96916.11;;;14.45;51.89
34205;BME280;20471;49.680;20.074;2023-02-23T14:01:38;96911.55;;;14.45;51.89
34205;BME280;20471;49.680;20.074;2023-02-23T14:04:04;96911.70;;;14.39;51.57
34205;BME280;20471;49.680;20.074;2023-02-23T14:06:38;96908.20;;;14.28;51.09
34205;BME280;20471;49.680;20.074;2023-02-23T14:09:09;96905.00;;;14.16;51.30
34205;BME280;20471;49.680;20.074;2023-02-23T14:22:30;96893.99;;;14.06;52.17
34205;BME280;20471;49.680;20.074;2023-02-23T14:27:52;96892.41;;;13.96;52.07
34205;BME280;20471;49.680;20.074;2023-02-23T14:30:29;96892.75;;;13.91;52.13
34205;BME280;20471;49.680;20.074;2023-02-23T14:36:02;96897.58;;;13.67;52.27
34205;BME280;20471;49.680;20.074;2023-02-23T14:38:50;96891.86;;;13.54;52.34
34205;BME280;20471;49.680;20.074;2023-02-23T14:41:28;96890.02;;;13.43;52.24
34205;BME280;20471;49.680;20.074;2023-02-23T14:43:58;96892.04;;;13.35;52.34
34205;BME280;20471;49.680;20.074;2023-02-23T14:46:30;96894.94;;;13.28;52.64
34205;BME280;20471;49.680;20.074;2023-02-23T14:49:07;96892.55;;;13.22;52.56
34205;BME280;20471;49.680;20.074;2023-02-23T14:51:40;96893.31;;;13.06;52.57
34205;BME280;20471;49.680;20.074;2023-02-23T14:56:54;96892.63;;;12.75;53.00
34205;BME280;20471;49.680;20.074;2023-02-23T14:59:25;96891.08;;;12.71;53.18
34205;BME280;20471;49.680;20.074;2023-02-23T15:01:58;96888.81;;;12.66;53.29
34205;BME280;20471;49.680;20.074;2023-02-23T15:04:27;96887.27;;;12.56;53.38
34205;BME280;20471;49.680;20.074;2023-02-23T15:06:57;96884.77;;;12.49;53.45
34205;BME280;20471;49.680;20.074;2023-02-23T15:09:39;96881.77;;;12.44;53.59
34205;BME280;20471;49.680;20.074;2023-02-23T15:12:12;96877.71;;;12.32;53.55
34205;BME280;20471;49.680;20.074;2023-02-23T15:14:42;96877.37;;;12.25;53.83
34205;BME280;20471;49.680;20.074;2023-02-23T15:17:12;96875.19;;;12.24;53.84
34205;BME280;20471;49.680;20.074;2023-02-23T15:19:42;96876.73;;;12.21;53.96